Terminal Aerodrome Forecast
Issued by NWS

Home | Current Version | Previous Version | Text Only | Print | Product List | Glossary On
Versions: 1 2 3 4 5 6 7 8 9 10 11 12 13 14
323
FTUS43 KGRB 220520
TAFCWA
TAF
KCWA 220520Z 2206/2306 32008KT P6SM SCT030
      TEMPO 2206/2208 BKN030
     FM220900 29005KT P6SM SKC
     FM221600 24008KT P6SM BKN200
     FM222200 20006KT P6SM BKN080
     FM230300 20007KT 6SM -SN BKN035 OVC060 PROB30 2303/2306 5SM
      -FZRASN BKN025
      AMD LTD TO CLD VIS AND WIND TIL 221200=

USA.gov is the U.S. government's official web portal to all federal, state and local government web resources and services.